Time;durP1;ratioP1;P1;durP2;ratioP2;P2;SDS_P1;SDS_P2;PMS_P1;PMS_P2;Temp;Humidity;BMP_temperature;BMP_pressure;BME280_temperature;BME280_humidity;BME280_pressure;Samples;Min_cycle;Max_cycle;Signal;HPM_P1;HPM_P2
2022/10/26 00:01:54;;;;;;;6.72;3.25;;;;;;;14.33;66.14;99799.47;5053096;28;20107;-61
2022/10/26 00:04:20;;;;;;;8.27;3.92;;;;;;;14.32;66.25;99797.78;5052398;28;20045;-61
2022/10/26 00:06:46;;;;;;;4.07;2.97;;;;;;;14.32;66.33;99800.41;5052567;28;20145;-60
2022/10/26 00:09:13;;;;;;;3.70;3.10;;;;;;;14.31;66.37;99799.56;5052864;28;20091;-62
2022/10/26 00:11:39;;;;;;;5.88;3.25;;;;;;;14.31;66.12;99798.69;5052952;28;20118;-61
2022/10/26 00:14:05;;;;;;;7.20;3.28;;;;;;;14.29;66.08;99787.41;5052819;28;20037;-62
2022/10/26 00:16:32;;;;;;;8.80;2.88;;;;;;;14.29;66.05;99792.69;5052422;28;20131;-61
2022/10/26 00:18:58;;;;;;;5.32;3.15;;;;;;;14.28;66.01;99797.13;5052642;28;20118;-61
2022/10/26 00:21:25;;;;;;;8.95;3.53;;;;;;;14.26;66.09;99785.81;5052436;28;20850;-62
2022/10/26 00:23:51;;;;;;;10.25;3.90;;;;;;;14.25;66.00;99785.94;5052625;28;20127;-60
2022/10/26 00:26:17;;;;;;;8.77;3.13;;;;;;;14.23;66.13;99786.03;5052279;28;20045;-63
2022/10/26 00:28:44;;;;;;;6.65;3.20;;;;;;;14.22;66.16;99792.28;5052396;28;20087;-61
2022/10/26 00:31:13;;;;;;;9.68;3.47;;;;;;;14.19;66.40;99795.16;5052466;28;20088;-62
2022/10/26 00:33:40;;;;;;;5.15;2.92;;;;;;;14.19;66.27;99795.16;5052168;28;20076;-62
2022/10/26 00:36:08;;;;;;;11.57;3.30;;;;;;;14.18;66.15;99796.09;5052029;28;20080;-61
2022/10/26 00:38:35;;;;;;;11.90;3.90;;;;;;;14.16;66.22;99793.56;5052338;28;20071;-61
2022/10/26 00:41:02;;;;;;;7.90;3.60;;;;;;;14.14;66.12;99795.50;5052174;28;20131;-62
2022/10/26 00:43:28;;;;;;;11.15;2.92;;;;;;;14.13;66.05;99792.94;5052265;28;20063;-60
2022/10/26 00:45:58;;;;;;;6.30;2.85;;;;;;;14.10;66.35;99798.47;5051816;28;20107;-60
2022/10/26 00:48:33;;;;;;;5.78;2.63;;;;;;;14.08;66.34;99798.56;5052085;28;20045;-61
2022/10/26 00:51:04;;;;;;;6.63;2.80;;;;;;;14.07;66.49;99794.22;5052047;28;20447;-62
2022/10/26 00:53:31;;;;;;;5.97;2.80;;;;;;;14.07;66.28;99797.72;5034409;28;20406;-63
2022/10/26 00:55:59;;;;;;;8.60;3.50;;;;;;;14.05;66.40;99794.34;5051570;28;20073;-60
2022/10/26 00:58:27;;;;;;;5.32;3.00;;;;;;;14.04;66.36;99789.16;5051822;28;20080;-62
2022/10/26 01:00:53;;;;;;;5.95;3.03;;;;;;;14.03;66.30;99788.31;5051796;28;20095;-61
2022/10/26 01:03:23;;;;;;;4.80;2.67;;;;;;;14.00;66.51;99783.22;5052016;28;20048;-61
2022/10/26 01:05:54;;;;;;;9.75;3.22;;;;;;;13.99;66.35;99780.69;5051716;28;20041;-60
2022/10/26 01:08:20;;;;;;;5.50;2.85;;;;;;;14.00;66.47;99782.38;5051744;28;20071;-61
2022/10/26 01:10:47;;;;;;;6.18;3.28;;;;;;;13.98;66.48;99776.38;5051532;28;20556;-61
2022/10/26 01:13:16;;;;;;;8.50;2.83;;;;;;;13.96;66.54;99768.53;5033767;28;20095;-61
2022/10/26 01:15:47;;;;;;;3.85;2.70;;;;;;;13.96;66.23;99768.53;5050669;28;20103;-61
2022/10/26 01:18:20;;;;;;;5.05;3.38;;;;;;;13.92;66.64;99762.63;5051784;28;20091;-61
2022/10/26 01:21:05;;;;;;;6.40;3.15;;;;;;;13.95;66.55;99769.50;5051716;28;20049;-60
2022/10/26 01:23:59;;;;;;;6.35;2.85;;;;;;;13.89;66.65;99768.13;5051940;28;20094;-60
2022/10/26 01:26:44;;;;;;;5.88;2.90;;;;;;;13.88;66.40;99763.78;5051148;28;20099;-61
2022/10/26 01:29:34;;;;;;;3.78;2.30;;;;;;;13.86;66.48;99757.75;5051521;28;20155;-60
2022/10/26 01:32:22;;;;;;;3.78;2.50;;;;;;;13.84;66.61;99751.72;5051181;28;20098;-61
2022/10/26 01:35:21;;;;;;;5.88;2.85;;;;;;;13.84;66.71;99746.44;5033570;28;20055;-63
2022/10/26 01:37:56;;;;;;;5.57;2.53;;;;;;;13.84;66.79;99746.44;5051030;28;20099;-61
2022/10/26 01:40:30;;;;;;;4.65;2.65;;;;;;;13.83;66.62;99742.09;5051618;28;20037;-61
2022/10/26 01:42:59;;;;;;;8.32;2.70;;;;;;;13.84;66.74;99745.59;5051364;28;20099;-62
2022/10/26 01:45:27;;;;;;;8.98;2.60;;;;;;;13.82;66.67;99743.03;5050704;28;20103;-62
2022/10/26 01:47:55;;;;;;;3.90;2.50;;;;;;;13.81;66.61;99751.94;5033115;28;20102;-63
2022/10/26 01:50:23;;;;;;;7.90;2.45;;;;;;;13.80;66.66;99742.31;5050831;28;20041;-63
2022/10/26 01:52:55;;;;;;;6.05;2.70;;;;;;;13.79;66.65;99740.59;5033064;28;20496;-61
2022/10/26 01:55:46;;;;;;;8.50;2.90;;;;;;;13.75;66.97;99742.63;5032918;28;20427;-62
2022/10/26 01:58:30;;;;;;;6.35;2.28;;;;;;;13.77;67.02;99740.75;5050908;28;20072;-62
2022/10/26 02:01:32;;;;;;;4.85;2.20;;;;;;;13.75;66.77;99729.41;5050725;28;20045;-61
2022/10/26 02:04:13;;;;;;;10.18;3.10;;;;;;;13.78;66.96;99730.97;5033266;28;20392;-60
2022/10/26 02:06:45;;;;;;;5.97;2.22;;;;;;;13.77;66.79;99724.88;5032677;28;20053;-61
2022/10/26 02:09:41;;;;;;;3.88;2.25;;;;;;;13.76;67.26;99719.69;5050640;28;20049;-61
2022/10/26 02:12:25;;;;;;;8.40;2.22;;;;;;;13.78;66.89;99720.41;5050808;28;20103;-60
2022/10/26 02:15:09;;;;;;;4.68;2.40;;;;;;;13.78;66.83;99715.97;5050382;28;20088;-64
2022/10/26 02:17:59;;;;;;;11.52;2.15;;;;;;;13.79;67.05;99716.78;5050549;28;20052;-64
2022/10/26 02:20:30;;;;;;;3.85;2.10;;;;;;;13.83;67.03;99718.25;5050859;28;20052;-61
2022/10/26 02:22:59;;;;;;;5.85;2.05;;;;;;;13.84;67.07;99714.69;5050719;28;20497;-61
2022/10/26 02:25:29;;;;;;;2.72;1.85;;;;;;;13.84;67.04;99711.19;5050241;28;20091;-61
2022/10/26 02:28:01;;;;;;;3.90;2.00;;;;;;;13.84;67.28;99704.09;5050246;28;20049;-63
2022/10/26 02:30:27;;;;;;;7.20;1.75;;;;;;;13.86;67.15;99702.19;5050347;28;20480;-61
2022/10/26 02:32:56;;;;;;;5.50;2.33;;;;;;;13.87;67.08;99703.03;5050558;28;20093;-62
2022/10/26 02:35:28;;;;;;;6.70;1.90;;;;;;;13.86;67.23;99691.59;5050150;28;20067;-61
2022/10/26 02:37:58;;;;;;;3.22;1.83;;;;;;;13.89;67.22;99696.69;5050331;28;20071;-60
2022/10/26 02:40:26;;;;;;;7.18;1.80;;;;;;;13.90;66.96;99698.38;5050395;28;20090;-61
2022/10/26 02:42:57;;;;;;;3.80;1.80;;;;;;;13.90;67.25;99693.06;5050241;28;20095;-61
2022/10/26 02:45:29;;;;;;;5.00;2.03;;;;;;;13.91;67.20;99691.28;5049979;28;20477;-62
2022/10/26 02:47:56;;;;;;;4.50;1.85;;;;;;;13.92;67.24;99688.53;5050424;28;20048;-61
2022/10/26 02:50:31;;;;;;;5.55;1.90;;;;;;;13.91;67.24;99684.16;5050432;28;20091;-61
2022/10/26 02:53:09;;;;;;;6.53;1.60;;;;;;;13.94;67.05;99683.09;5032393;28;20049;-61
2022/10/26 02:55:42;;;;;;;4.85;2.03;;;;;;;13.94;67.17;99681.31;5049763;28;20481;-61
2022/10/26 02:58:19;;;;;;;3.25;1.70;;;;;;;13.93;67.17;99684.91;5032589;28;20060;-62
2022/10/26 03:00:45;;;;;;;6.85;1.90;;;;;;;13.98;67.22;99681.91;5050250;28;20049;-62
2022/10/26 03:03:12;;;;;;;8.82;1.77;;;;;;;13.98;67.20;99676.63;5050410;28;20045;-61
2022/10/26 03:05:41;;;;;;;4.22;1.60;;;;;;;13.98;66.98;99673.97;5031940;28;20098;-61
2022/10/26 03:08:08;;;;;;;3.40;1.60;;;;;;;14.02;66.92;99677.28;5032114;28;20044;-63
2022/10/26 03:10:42;;;;;;;6.22;1.50;;;;;;;13.98;66.97;99683.75;5050341;28;20053;-61
2022/10/26 03:13:09;;;;;;;3.28;1.60;;;;;;;14.00;66.81;99673.88;5050083;28;20131;-60
2022/10/26 03:15:36;;;;;;;5.43;1.60;;;;;;;13.99;66.97;99677.47;5049712;28;20045;-62
2022/10/26 03:18:03;;;;;;;5.93;2.00;;;;;;;13.99;66.84;99672.19;5049744;28;20041;-60
2022/10/26 03:20:30;;;;;;;4.25;1.02;;;;;;;13.98;66.75;99673.16;5049945;28;20045;-61
2022/10/26 03:22:56;;;;;;;3.72;1.40;;;;;;;13.98;66.73;99675.81;5050166;28;20064;-63
2022/10/26 03:25:24;;;;;;;3.70;1.50;;;;;;;13.97;66.70;99674.13;5049805;28;20077;-60
2022/10/26 03:28:01;;;;;;;4.38;1.67;;;;;;;13.92;66.46;99663.84;5049830;28;20391;-62
2022/10/26 03:30:28;;;;;;;4.90;1.48;;;;;;;13.95;66.56;99674.22;5032221;28;20048;-60
2022/10/26 03:32:55;;;;;;;3.42;1.45;;;;;;;13.94;66.54;99675.16;5049743;28;20076;-62
2022/10/26 03:35:22;;;;;;;4.13;1.50;;;;;;;13.92;66.54;99662.06;5049512;28;20049;-61
2022/10/26 03:37:49;;;;;;;2.47;1.48;;;;;;;13.91;66.69;99673.59;5049858;28;20191;-60
2022/10/26 03:40:16;;;;;;;7.63;1.42;;;;;;;13.91;66.60;99662.19;5052128;28;20228;-61
2022/10/26 03:42:42;;;;;;;3.25;1.52;;;;;;;13.90;66.75;99663.97;5053388;28;20130;-60
2022/10/26 03:45:09;;;;;;;2.53;1.25;;;;;;;13.90;66.71;99663.97;5054308;28;20523;-61
2022/10/26 03:47:46;;;;;;;5.95;1.33;;;;;;;13.86;66.58;99665.13;5052769;28;20635;-62
2022/10/26 03:50:14;;;;;;;4.55;1.50;;;;;;;13.89;66.83;99664.94;5027413;28;20045;-61
2022/10/26 03:52:41;;;;;;;25.30;2.13;;;;;;;13.90;66.58;99655.16;5053215;28;20110;-61
2022/10/26 03:55:08;;;;;;;4.50;1.55;;;;;;;13.91;66.71;99657.72;5052622;28;20080;-61
2022/10/26 03:57:43;;;;;;;8.20;1.50;;;;;;;13.91;66.52;99659.53;5052979;28;20037;-60
2022/10/26 04:00:14;;;;;;;2.95;1.17;;;;;;;13.93;66.76;99661.09;5035060;28;20049;-60
2022/10/26 04:02:46;;;;;;;3.38;1.15;;;;;;;13.95;66.86;99655.69;5055781;28;20081;-62
2022/10/26 04:05:15;;;;;;;2.17;1.45;;;;;;;13.98;67.04;99659.94;5055013;28;20076;-61
2022/10/26 04:07:42;;;;;;;3.13;1.17;;;;;;;14.00;66.98;99666.78;5052349;28;20049;-61
2022/10/26 04:10:09;;;;;;;7.60;1.20;;;;;;;14.03;66.67;99652.50;5052791;28;20076;-61
2022/10/26 04:12:37;;;;;;;2.58;1.33;;;;;;;14.06;66.86;99657.56;5053401;28;20041;-61
2022/10/26 04:15:05;;;;;;;2.25;1.30;;;;;;;14.10;66.91;99666.97;5052219;28;20049;-62
2022/10/26 04:17:32;;;;;;;2.03;1.27;;;;;;;14.13;66.67;99660.59;5034980;28;20484;-62
2022/10/26 04:19:58;;;;;;;4.95;1.17;;;;;;;14.17;66.60;99664.72;5052734;28;20103;-61
2022/10/26 04:22:24;;;;;;;4.07;1.27;;;;;;;14.19;66.66;99661.00;5052903;28;20539;-61
2022/10/26 04:24:51;;;;;;;7.38;1.60;;;;;;;14.23;66.73;99669.53;5052143;28;20489;-62
2022/10/26 04:27:17;;;;;;;4.40;1.45;;;;;;;14.24;66.63;99659.81;5052465;28;20088;-62
2022/10/26 04:29:43;;;;;;;2.97;1.10;;;;;;;14.26;66.44;99664.03;5052451;28;20144;-62
2022/10/26 04:32:10;;;;;;;2.47;0.98;;;;;;;14.29;66.45;99660.31;5052548;28;20087;-61
2022/10/26 04:34:36;;;;;;;3.03;1.15;;;;;;;14.31;66.20;99658.38;5052250;28;20072;-60
2022/10/26 04:37:02;;;;;;;3.03;1.15;;;;;;;14.33;66.45;99659.94;5052598;28;20160;-61
2022/10/26 04:39:29;;;;;;;3.33;1.15;;;;;;;14.35;66.42;99654.53;5052318;28;20091;-61
2022/10/26 04:41:55;;;;;;;2.40;1.00;;;;;;;14.38;66.33;99653.47;5052256;28;20457;-63
2022/10/26 04:44:22;;;;;;;5.00;1.40;;;;;;;14.39;66.11;99653.34;5052323;28;20041;-61
2022/10/26 04:46:48;;;;;;;4.45;1.42;;;;;;;14.41;66.22;99655.88;5052090;28;20049;-61
2022/10/26 04:49:14;;;;;;;4.47;1.10;;;;;;;14.42;66.08;99654.94;5034243;28;20103;-60
2022/10/26 04:51:41;;;;;;;4.13;1.27;;;;;;;14.44;66.12;99648.56;5052089;28;20127;-62
2022/10/26 04:54:07;;;;;;;3.83;1.25;;;;;;;14.46;66.28;99656.38;5051423;28;20114;-63
2022/10/26 04:56:33;;;;;;;2.75;1.10;;;;;;;14.48;66.30;99653.63;5051453;28;20555;-61
2022/10/26 04:59:00;;;;;;;6.28;1.20;;;;;;;14.49;66.20;99647.38;5052098;28;20052;-62
2022/10/26 05:01:27;;;;;;;2.30;1.10;;;;;;;14.51;66.14;99650.75;5051897;28;20106;-61
2022/10/26 05:03:53;;;;;;;3.13;1.10;;;;;;;14.53;66.07;99665.56;5034193;28;20132;-61
2022/10/26 05:06:20;;;;;;;6.63;1.17;;;;;;;14.55;66.22;99654.88;5033755;28;20095;-60
2022/10/26 05:08:47;;;;;;;2.35;1.20;;;;;;;14.56;66.08;99651.25;5051633;28;20135;-62
2022/10/26 05:11:13;;;;;;;6.78;1.73;;;;;;;14.58;66.06;99657.28;5051856;28;20043;-60
2022/10/26 05:13:40;;;;;;;7.32;1.48;;;;;;;14.59;65.86;99656.31;5051856;28;20049;-62
2022/10/26 05:16:07;;;;;;;3.85;1.30;;;;;;;14.60;65.94;99658.00;5051420;28;20133;-60
2022/10/26 05:18:33;;;;;;;1.90;0.98;;;;;;;14.62;65.94;99657.88;5051780;28;20118;-61
2022/10/26 05:20:59;;;;;;;5.57;1.25;;;;;;;14.61;65.89;99656.22;5051367;28;20045;-61
2022/10/26 05:23:26;;;;;;;3.13;1.20;;;;;;;14.62;65.88;99660.53;5033753;28;20087;-62
2022/10/26 05:25:54;;;;;;;5.97;1.30;;;;;;;14.59;65.76;99648.38;5051286;28;20107;-60
2022/10/26 05:28:20;;;;;;;5.32;1.50;;;;;;;14.62;65.85;99655.25;5051363;28;20084;-60
2022/10/26 05:30:47;;;;;;;5.68;1.23;;;;;;;14.61;65.74;99657.03;5048605;28;20124;-62
2022/10/26 05:33:13;;;;;;;2.08;1.00;;;;;;;14.59;65.71;99653.66;5051117;28;20084;-61
2022/10/26 05:35:40;;;;;;;2.72;1.20;;;;;;;14.59;65.84;99651.03;5050809;28;20053;-60
2022/10/26 05:38:10;;;;;;;4.72;1.00;;;;;;;14.57;65.69;99660.88;5050922;28;20052;-60
2022/10/26 05:40:36;;;;;;;2.65;1.20;;;;;;;14.58;65.94;99658.13;5051240;28;20049;-60
2022/10/26 05:43:03;;;;;;;5.63;1.65;;;;;;;14.58;65.97;99659.94;5051311;28;20103;-60
2022/10/26 05:45:29;;;;;;;2.20;0.95;;;;;;;14.58;65.99;99657.28;5050709;28;20088;-62
2022/10/26 05:47:56;;;;;;;5.35;1.60;;;;;;;14.58;66.14;99660.75;5050883;28;20045;-61
2022/10/26 05:50:28;;;;;;;4.55;1.10;;;;;;;14.59;66.19;99662.44;5050870;28;20497;-62
2022/10/26 05:52:54;;;;;;;7.00;1.45;;;;;;;14.60;66.26;99671.25;5050884;28;20110;-62
2022/10/26 05:55:21;;;;;;;6.55;1.40;;;;;;;14.61;66.20;99664.97;5043556;28;20091;-60
2022/10/26 05:57:48;;;;;;;2.63;0.95;;;;;;;14.62;66.05;99664.03;5049484;28;20053;-65
2022/10/26 06:00:16;;;;;;;4.40;1.08;;;;;;;14.63;66.12;99663.06;5049594;28;20041;-61
2022/10/26 06:03:16;;;;;;;6.78;1.25;;;;;;;14.61;66.15;99664.16;5050351;28;20099;-61
2022/10/26 06:05:55;;;;;;;2.33;1.00;;;;;;;14.61;65.69;99672.94;5035614;28;20079;-61
2022/10/26 06:08:24;;;;;;;6.43;1.30;;;;;;;14.66;65.99;99676.06;5043548;28;20072;-60
2022/10/26 06:10:52;;;;;;;3.63;1.35;;;;;;;14.67;66.14;99677.78;5050016;28;20077;-60
2022/10/26 06:13:19;;;;;;;6.00;0.95;;;;;;;14.67;66.10;99676.91;5050388;28;20080;-61
2022/10/26 06:16:14;;;;;;;7.18;1.35;;;;;;;14.64;65.99;99683.31;5050389;28;20143;-61
2022/10/26 06:18:56;;;;;;;4.57;0.98;;;;;;;14.70;66.17;99680.19;5050747;28;20451;-60
2022/10/26 06:21:55;;;;;;;3.03;1.40;;;;;;;14.69;66.05;99682.97;5050260;28;20400;-60
2022/10/26 06:24:52;;;;;;;3.08;1.38;;;;;;;14.70;66.09;99684.66;5032516;28;20459;-61
2022/10/26 06:27:27;;;;;;;2.92;1.25;;;;;;;14.73;66.15;99685.25;5049184;28;20534;-61
2022/10/26 06:30:05;;;;;;;4.18;1.35;;;;;;;14.78;66.42;99692.03;5055606;28;20079;-60
2022/10/26 06:32:32;;;;;;;3.47;1.23;;;;;;;14.81;66.45;99694.47;5045813;28;20045;-63
2022/10/26 06:35:34;;;;;;;3.13;1.20;;;;;;;14.80;66.29;99687.47;5030002;28;20090;-60
2022/10/26 06:38:06;;;;;;;2.92;1.38;;;;;;;14.85;66.31;99691.44;5047290;28;20144;-60
2022/10/26 06:40:35;;;;;;;6.03;1.25;;;;;;;14.90;66.42;99700.84;5034896;28;20053;-63
2022/10/26 06:43:01;;;;;;;2.65;1.08;;;;;;;14.94;66.52;99697.88;5050060;28;20128;-60
2022/10/26 06:45:28;;;;;;;4.25;1.40;;;;;;;14.96;66.52;99693.28;5048616;28;20088;-60
2022/10/26 06:48:19;;;;;;;7.03;2.25;;;;;;;14.95;66.26;99699.53;5048631;28;20127;-61
2022/10/26 06:50:56;;;;;;;4.53;1.48;;;;;;;15.02;66.11;99693.78;5049964;28;20081;-61
2022/10/26 06:53:29;;;;;;;6.90;1.60;;;;;;;15.06;66.71;99692.59;5043750;28;20053;-63
2022/10/26 06:55:59;;;;;;;;;;;;;;;15.08;66.28;99695.97;5049121;28;20135;-61
2022/10/26 06:58:36;;;;;;;3.00;1.05;;;;;;;15.14;66.05;99694.66;5049954;28;20440;-62
2022/10/26 07:01:02;;;;;;;3.28;1.30;;;;;;;15.18;66.31;99691.63;5032582;28;20053;-61
2022/10/26 07:03:29;;;;;;;3.70;1.23;;;;;;;15.20;66.41;99695.00;5050142;28;20055;-61
2022/10/26 07:05:55;;;;;;;3.42;1.30;;;;;;;15.23;66.43;99699.22;5049944;28;20045;-61
2022/10/26 07:08:22;;;;;;;5.72;1.38;;;;;;;15.26;66.51;99695.50;5048771;28;20085;-62
2022/10/26 07:10:49;;;;;;;4.65;1.20;;;;;;;15.29;66.61;99698.75;5050151;28;20085;-61
2022/10/26 07:13:15;;;;;;;4.68;1.40;;;;;;;15.33;66.57;99704.66;5050077;28;20500;-61
2022/10/26 07:15:42;;;;;;;5.28;1.58;;;;;;;15.36;66.48;99702.63;5052618;28;20798;-61
2022/10/26 07:18:09;;;;;;;6.35;1.48;;;;;;;15.40;66.51;99695.25;5052481;28;20081;-61
2022/10/26 07:20:40;;;;;;;7.25;1.27;;;;;;;15.44;66.25;99703.81;5036233;28;20049;-60
2022/10/26 07:23:11;;;;;;;3.92;1.23;;;;;;;15.49;66.41;99707.81;5053840;28;20095;-62
2022/10/26 07:25:39;;;;;;;7.57;1.40;;;;;;;15.54;66.48;99704.78;5035811;28;20052;-61
2022/10/26 07:28:08;;;;;;;6.63;1.50;;;;;;;15.59;66.28;99699.94;5053595;28;20064;-61
2022/10/26 07:30:36;;;;;;;3.85;1.02;;;;;;;15.64;66.39;99696.94;5053473;28;20057;-61
2022/10/26 07:33:06;;;;;;;8.45;1.40;;;;;;;15.69;66.28;99702.72;5053393;28;20063;-60
2022/10/26 07:35:33;;;;;;;2.10;1.40;;;;;;;15.73;66.23;99701.50;5035585;28;20123;-60
2022/10/26 07:38:01;;;;;;;4.88;1.35;;;;;;;15.81;66.11;99705.38;5053502;28;20556;-62
2022/10/26 07:40:28;;;;;;;2.22;1.10;;;;;;;15.86;66.14;99703.19;5053591;28;20451;-61
2022/10/26 07:42:58;;;;;;;3.83;1.38;;;;;;;15.90;65.89;99710.75;5053311;28;20076;-61
2022/10/26 07:45:26;;;;;;;8.13;1.90;;;;;;;15.97;66.04;99705.00;5053345;28;20076;-62
2022/10/26 07:47:53;;;;;;;5.20;1.38;;;;;;;16.02;66.07;99703.69;5053552;28;20049;-60
2022/10/26 07:50:19;;;;;;;3.00;1.40;;;;;;;16.08;66.05;99715.63;5053370;28;20084;-61
2022/10/26 07:52:46;;;;;;;6.80;1.65;;;;;;;16.13;65.95;99716.09;5053208;28;20441;-62
2022/10/26 07:55:13;;;;;;;2.65;1.48;;;;;;;16.19;66.08;99714.75;5052777;28;20045;-61
2022/10/26 07:57:39;;;;;;;4.00;1.48;;;;;;;16.25;65.77;99718.69;5051994;28;20084;-60
2022/10/26 08:00:08;;;;;;;6.35;1.27;;;;;;;16.30;65.80;99711.22;5053315;28;20061;-60
2022/10/26 08:02:35;;;;;;;4.82;1.25;;;;;;;16.35;65.76;99713.47;5035573;28;20068;-60
2022/10/26 08:05:01;;;;;;;2.75;1.10;;;;;;;16.40;65.77;99712.13;5035006;28;20135;-61
2022/10/26 08:07:28;;;;;;;4.47;1.38;;;;;;;16.46;65.46;99713.44;5052883;28;20493;-62
2022/10/26 08:09:54;;;;;;;4.00;1.55;;;;;;;16.52;65.59;99710.25;5052722;28;20052;-60
2022/10/26 08:12:20;;;;;;;5.60;1.38;;;;;;;16.58;65.36;99708.06;5052769;28;20084;-60
2022/10/26 08:14:47;;;;;;;3.47;1.35;;;;;;;16.63;65.54;99701.41;5052748;28;20091;-63
2022/10/26 08:17:13;;;;;;;6.20;1.40;;;;;;;16.69;65.29;99705.34;5052558;28;20095;-61
2022/10/26 08:19:39;;;;;;;3.22;1.30;;;;;;;16.74;65.39;99707.66;5052619;28;20084;-60
2022/10/26 08:22:06;;;;;;;5.85;1.40;;;;;;;16.78;65.03;99707.25;5052781;28;20053;-61
2022/10/26 08:24:32;;;;;;;2.17;1.10;;;;;;;16.82;65.10;99702.50;5052425;28;20157;-60
2022/10/26 08:26:59;;;;;;;3.22;1.10;;;;;;;16.86;65.17;99709.25;5052190;28;20126;-61
2022/10/26 08:29:25;;;;;;;3.35;1.45;;;;;;;16.91;65.08;99698.22;5052497;28;20103;-62
2022/10/26 08:31:51;;;;;;;3.38;1.05;;;;;;;16.96;65.15;99698.69;5052361;28;20509;-61
2022/10/26 08:34:18;;;;;;;3.90;1.17;;;;;;;17.02;65.12;99705.28;5052353;28;20052;-63
2022/10/26 08:36:44;;;;;;;4.90;1.60;;;;;;;17.06;64.84;99704.94;5051999;28;20081;-62
2022/10/26 08:39:10;;;;;;;2.90;1.27;;;;;;;17.13;64.85;99696.44;5052112;28;20056;-61
2022/10/26 08:41:40;;;;;;;4.38;1.40;;;;;;;17.20;65.07;99697.59;5052505;28;20071;-60
2022/10/26 08:44:24;;;;;;;4.70;1.15;;;;;;;17.23;63.85;99702.63;5052014;28;20456;-62
2022/10/26 08:46:57;;;;;;;5.68;1.25;;;;;;;17.34;64.12;99695.56;5034274;28;20052;-61
2022/10/26 08:49:31;;;;;;;3.67;1.13;;;;;;;17.39;64.03;99678.22;5052114;28;20080;-60
2022/10/26 08:52:01;;;;;;;2.97;1.13;;;;;;;17.50;64.37;99684.41;5052061;28;20095;-62
2022/10/26 08:54:51;;;;;;;3.75;1.30;;;;;;;17.54;64.03;99686.66;5052145;28;20415;-61
2022/10/26 08:57:24;;;;;;;5.72;1.58;;;;;;;17.66;63.83;99684.75;5034246;28;20084;-61
2022/10/26 09:00:06;;;;;;;2.25;1.05;;;;;;;17.72;63.44;99686.03;5051842;28;20044;-60
2022/10/26 09:02:32;;;;;;;4.53;1.55;;;;;;;17.86;64.64;99689.28;5051987;28;20136;-60
2022/10/26 09:04:59;;;;;;;8.32;1.85;;;;;;;17.95;64.47;99691.13;5051690;28;20132;-60
2022/10/26 09:07:47;;;;;;;15.60;4.32;;;;;;;18.00;63.11;99678.25;5051802;28;20115;-62
2022/10/26 09:10:40;;;;;;;4.55;1.38;;;;;;;18.14;64.29;99679.69;5051912;28;20053;-63
2022/10/26 09:13:19;;;;;;;2.63;1.00;;;;;;;18.24;63.15;99687.69;5047681;28;20575;-61
2022/10/26 09:15:51;;;;;;;3.20;1.35;;;;;;;18.36;63.76;99688.41;5051338;28;20124;-63
2022/10/26 09:18:46;;;;;;;7.87;0.90;;;;;;;18.43;63.06;99689.50;5051700;28;20052;-60
2022/10/26 09:21:31;;;;;;;3.30;1.05;;;;;;;18.51;62.50;99690.63;5033661;28;20309;-62
2022/10/26 09:24:09;;;;;;;2.10;1.13;;;;;;;18.60;62.35;99695.97;5051517;28;20463;-60
2022/10/26 09:26:44;;;;;;;2.10;1.10;;;;;;;18.68;62.46;99697.06;5051182;28;20088;-61
2022/10/26 09:29:13;;;;;;;2.88;1.13;;;;;;;18.71;61.63;99696.78;5033851;28;20048;-62
2022/10/26 09:31:46;;;;;;;5.72;1.00;;;;;;;18.72;61.09;99693.13;5051235;28;20053;-61
2022/10/26 09:34:23;;;;;;;2.25;1.10;;;;;;;18.71;60.52;99697.66;5051494;28;20091;-61
2022/10/26 09:36:53;;;;;;;2.78;1.10;;;;;;;18.72;61.05;99702.00;5050178;28;20045;-61
2022/10/26 09:39:29;;;;;;;4.40;1.00;;;;;;;18.70;60.90;99706.63;5051189;28;20060;-61
2022/10/26 09:42:03;;;;;;;4.80;1.10;;;;;;;18.72;60.98;99711.78;5033556;28;20045;-61
2022/10/26 09:44:48;;;;;;;3.88;0.93;;;;;;;18.69;60.63;99720.09;5051258;28;20114;-62
2022/10/26 09:47:36;;;;;;;2.75;1.10;;;;;;;18.69;60.54;99717.44;5049727;28;20111;-61
2022/10/26 09:50:19;;;;;;;2.30;0.95;;;;;;;18.70;60.89;99727.09;5033364;28;20052;-60
2022/10/26 09:52:46;;;;;;;1.83;1.05;;;;;;;18.76;61.77;99726.53;5049973;28;20087;-64
2022/10/26 09:55:13;;;;;;;2.08;1.20;;;;;;;18.77;62.02;99735.38;5050535;28;20060;-61
2022/10/26 09:57:45;;;;;;;2.53;1.00;;;;;;;18.76;61.02;99726.53;5050693;28;20136;-62
2022/10/26 10:00:17;;;;;;;1.92;0.90;;;;;;;18.78;61.06;99735.25;5050895;28;20053;-61
2022/10/26 10:02:49;;;;;;;5.47;1.25;;;;;;;18.85;61.64;99746.19;5033273;28;20056;-61
2022/10/26 10:05:20;;;;;;;2.38;1.17;;;;;;;18.88;59.94;99751.25;5049529;28;20048;-61
2022/10/26 10:08:17;;;;;;;1.40;0.95;;;;;;;18.92;60.27;99754.47;5035917;28;20504;-62
2022/10/26 10:10:56;;;;;;;3.83;1.23;;;;;;;18.94;60.55;99766.66;5050585;28;20053;-62
2022/10/26 10:13:25;;;;;;;4.00;1.33;;;;;;;19.01;61.15;99765.13;5050839;28;20495;-61
2022/10/26 10:16:03;;;;;;;4.15;1.15;;;;;;;19.03;60.07;99770.31;5049031;28;20098;-60
2022/10/26 10:18:30;;;;;;;2.42;1.20;;;;;;;19.13;61.39;99771.16;5050629;28;20045;-62
2022/10/26 10:23:53;;;;;;;2.53;1.10;;;;;;;19.26;59.96;99780.69;4772664;22;20098;-61
2022/10/26 10:26:19;;;;;;;2.00;1.00;;;;;;;19.37;60.92;99783.19;5050212;28;20527;-60
2022/10/26 10:29:00;;;;;;;3.22;1.35;;;;;;;19.40;58.38;99777.56;5051266;28;20144;-61
2022/10/26 10:31:29;;;;;;;5.30;1.35;;;;;;;19.54;59.80;99791.44;5050988;28;20048;-60
2022/10/26 10:33:55;;;;;;;4.97;1.50;;;;;;;19.61;60.16;99795.22;5050731;28;20048;-60
2022/10/26 10:36:25;;;;;;;2.97;1.25;;;;;;;19.68;59.56;99790.13;5050409;28;20049;-64
2022/10/26 10:38:52;;;;;;;6.13;1.50;;;;;;;19.77;59.95;99788.41;5050548;28;20064;-60
2022/10/26 10:41:35;;;;;;;3.38;1.40;;;;;;;19.83;58.69;99794.97;5050605;28;20095;-59
2022/10/26 10:44:07;;;;;;;4.43;1.70;;;;;;;19.93;58.49;99782.44;5032915;28;20076;-59
2022/10/26 10:46:36;;;;;;;2.38;1.52;;;;;;;20.06;60.16;99787.47;5050450;28;20053;-59
2022/10/26 10:49:06;;;;;;;3.55;1.35;;;;;;;20.19;60.33;99779.09;5052802;28;20040;-59
2022/10/26 10:51:39;;;;;;;3.85;1.48;;;;;;;20.39;59.55;99785.16;5037539;28;20091;-60
2022/10/26 10:54:20;;;;;;;2.60;1.30;;;;;;;20.68;60.06;99793.97;5055338;28;20080;-58
2022/10/26 10:56:53;;;;;;;4.30;1.40;;;;;;;21.11;61.05;99788.81;5055047;28;20153;-62
2022/10/26 10:59:38;;;;;;;5.68;1.63;;;;;;;21.63;59.64;99786.34;5055451;28;20092;-58
2022/10/26 11:02:49;;;;;;;2.47;1.27;;;;;;;22.20;58.06;99795.63;5055098;28;20061;-58
2022/10/26 11:05:25;;;;;;;2.83;1.30;;;;;;;22.69;57.25;99786.84;5026141;28;20136;-59
2022/10/26 11:08:08;;;;;;;3.45;1.38;;;;;;;23.02;55.50;99800.31;5054968;28;20106;-56
2022/10/26 11:10:40;;;;;;;4.68;1.67;;;;;;;23.29;55.73;99805.50;5055245;28;20110;-58
2022/10/26 11:13:22;;;;;;;5.10;1.67;;;;;;;23.44;54.60;99803.00;5055075;28;20048;-57
2022/10/26 11:15:58;;;;;;;4.53;1.70;;;;;;;23.70;56.08;99791.16;5054890;28;20083;-58
2022/10/26 11:18:55;;;;;;;4.40;1.55;;;;;;;24.00;55.39;99791.34;5037157;28;20045;-59
2022/10/26 11:21:29;;;;;;;6.85;1.80;;;;;;;24.44;54.68;99790.00;5054369;28;20376;-58
2022/10/26 11:24:14;;;;;;;6.25;1.48;;;;;;;24.91;54.51;99783.78;5054504;28;20057;-59
2022/10/26 11:26:52;;;;;;;6.30;1.70;;;;;;;25.46;54.53;99787.13;5036886;28;20484;-58
2022/10/26 11:29:32;;;;;;;6.82;1.27;;;;;;;26.04;53.26;99788.34;5054511;28;20115;-58
2022/10/26 11:32:20;;;;;;;4.07;1.77;;;;;;;26.63;51.02;99799.19;5053472;28;20041;-59
2022/10/26 11:34:57;;;;;;;2.10;1.38;;;;;;;27.14;47.98;99787.41;5054719;28;20103;-58
2022/10/26 11:38:00;;;;;;;2.88;1.23;;;;;;;27.60;50.44;99796.03;5054444;28;20139;-59
2022/10/26 11:40:45;;;;;;;8.82;1.42;;;;;;;28.06;49.99;99793.78;5036705;28;20053;-58
2022/10/26 11:43:23;;;;;;;2.70;1.05;;;;;;;28.47;48.15;99783.94;5054383;28;20095;-59
2022/10/26 11:46:12;;;;;;;4.65;1.40;;;;;;;28.83;46.58;99776.47;5053952;28;20085;-60
2022/10/26 11:48:57;;;;;;;2.83;1.40;;;;;;;29.13;44.96;99781.50;5054285;28;20516;-59
2022/10/26 11:52:01;;;;;;;5.05;1.70;;;;;;;29.34;45.14;99780.41;5036313;28;20094;-59
2022/10/26 11:54:36;;;;;;;7.00;1.67;;;;;;;29.57;44.21;99779.16;5053819;28;20485;-59
2022/10/26 11:57:04;;;;;;;4.90;1.33;;;;;;;29.72;45.09;99770.78;5054241;28;20081;-58
2022/10/26 11:59:36;;;;;;;8.13;1.42;;;;;;;29.83;43.46;99776.56;5036106;28;20448;-59
2022/10/26 12:02:13;;;;;;;3.88;1.38;;;;;;;29.92;43.44;99775.28;5053855;28;20053;-59